sensor_id;sensor_type;location;lat;lon;timestamp;temperature;humidity
55121;DHT22;41019;48.512;9.036;2023-08-08T00:01:31;12.70;97.40
55121;DHT22;41019;48.512;9.036;2023-08-08T00:03:58;12.70;97.40
55121;DHT22;41019;48.512;9.036;2023-08-08T00:06:23;12.70;97.30
55121;DHT22;41019;48.512;9.036;2023-08-08T00:08:49;12.60;97.40
55121;DHT22;41019;48.512;9.036;2023-08-08T00:11:15;12.60;97.60
55121;DHT22;41019;48.512;9.036;2023-08-08T00:13:41;12.60;97.60
55121;DHT22;41019;48.512;9.036;2023-08-08T00:16:07;12.60;97.70
55121;DHT22;41019;48.512;9.036;2023-08-08T00:18:33;12.60;97.90
55121;DHT22;41019;48.512;9.036;2023-08-08T00:20:59;12.60;97.80
55121;DHT22;41019;48.512;9.036;2023-08-08T00:23:25;12.50;97.80
55121;DHT22;41019;48.512;9.036;2023-08-08T00:25:51;12.60;98.00
55121;DHT22;41019;48.512;9.036;2023-08-08T00:28:17;12.60;98.10
55121;DHT22;41019;48.512;9.036;2023-08-08T00:30:44;12.60;98.40
55121;DHT22;41019;48.512;9.036;2023-08-08T00:33:10;12.60;98.50
55121;DHT22;41019;48.512;9.036;2023-08-08T00:35:35;12.60;98.30
55121;DHT22;41019;48.512;9.036;2023-08-08T00:38:02;12.60;98.40
55121;DHT22;41019;48.512;9.036;2023-08-08T00:40:28;12.60;98.40
55121;DHT22;41019;48.512;9.036;2023-08-08T00:42:54;12.70;98.60
55121;DHT22;41019;48.512;9.036;2023-08-08T00:45:20;12.70;98.60
55121;DHT22;41019;48.512;9.036;2023-08-08T00:47:46;12.70;98.50
55121;DHT22;41019;48.512;9.036;2023-08-08T00:50:14;12.80;98.40
55121;DHT22;41019;48.512;9.036;2023-08-08T00:52:41;12.80;98.40
55121;DHT22;41019;48.512;9.036;2023-08-08T00:55:08;12.80;98.30
55121;DHT22;41019;48.512;9.036;2023-08-08T00:57:34;12.80;98.40
55121;DHT22;41019;48.512;9.036;2023-08-08T01:00:06;12.80;98.50
55121;DHT22;41019;48.512;9.036;2023-08-08T01:02:33;12.90;98.70
55121;DHT22;41019;48.512;9.036;2023-08-08T01:04:59;12.90;98.70
55121;DHT22;41019;48.512;9.036;2023-08-08T01:07:44;12.90;98.70
55121;DHT22;41019;48.512;9.036;2023-08-08T01:10:17;12.90;98.90
55121;DHT22;41019;48.512;9.036;2023-08-08T01:12:52;12.90;98.90
55121;DHT22;41019;48.512;9.036;2023-08-08T01:15:19;12.90;98.90
55121;DHT22;41019;48.512;9.036;2023-08-08T01:17:47;12.90;98.90
55121;DHT22;41019;48.512;9.036;2023-08-08T01:20:14;12.90;98.90
55121;DHT22;41019;48.512;9.036;2023-08-08T01:25:37;12.90;98.80
55121;DHT22;41019;48.512;9.036;2023-08-08T01:28:03;12.90;98.70
55121;DHT22;41019;48.512;9.036;2023-08-08T01:30:30;12.80;98.70
55121;DHT22;41019;48.512;9.036;2023-08-08T01:32:56;12.80;98.60
55121;DHT22;41019;48.512;9.036;2023-08-08T01:35:28;12.80;98.70
55121;DHT22;41019;48.512;9.036;2023-08-08T01:38:08;12.80;98.60
55121;DHT22;41019;48.512;9.036;2023-08-08T01:40:35;12.80;98.60
55121;DHT22;41019;48.512;9.036;2023-08-08T01:43:03;12.80;98.60
55121;DHT22;41019;48.512;9.036;2023-08-08T01:45:30;12.80;98.80
55121;DHT22;41019;48.512;9.036;2023-08-08T01:47:56;12.80;98.80
55121;DHT22;41019;48.512;9.036;2023-08-08T01:50:22;12.80;98.70
55121;DHT22;41019;48.512;9.036;2023-08-08T01:52:48;12.80;98.60
55121;DHT22;41019;48.512;9.036;2023-08-08T01:55:14;12.80;98.80
55121;DHT22;41019;48.512;9.036;2023-08-08T01:57:40;12.80;98.60
55121;DHT22;41019;48.512;9.036;2023-08-08T02:00:07;12.80;98.60
55121;DHT22;41019;48.512;9.036;2023-08-08T02:02:41;12.80;98.50
55121;DHT22;41019;48.512;9.036;2023-08-08T02:05:07;12.80;98.30
55121;DHT22;41019;48.512;9.036;2023-08-08T02:07:33;12.80;98.40
55121;DHT22;41019;48.512;9.036;2023-08-08T02:10:00;12.70;98.30
55121;DHT22;41019;48.512;9.036;2023-08-08T02:12:25;12.70;98.30
55121;DHT22;41019;48.512;9.036;2023-08-08T02:14:52;12.70;98.50
55121;DHT22;41019;48.512;9.036;2023-08-08T02:17:17;12.70;98.50
55121;DHT22;41019;48.512;9.036;2023-08-08T02:19:43;12.70;98.60
55121;DHT22;41019;48.512;9.036;2023-08-08T02:22:09;12.70;98.70
55121;DHT22;41019;48.512;9.036;2023-08-08T02:24:35;12.70;98.80
55121;DHT22;41019;48.512;9.036;2023-08-08T02:27:01;12.70;98.70
55121;DHT22;41019;48.512;9.036;2023-08-08T02:29:26;12.70;98.70
55121;DHT22;41019;48.512;9.036;2023-08-08T02:31:53;12.80;98.90
55121;DHT22;41019;48.512;9.036;2023-08-08T02:34:19;12.80;99.10
55121;DHT22;41019;48.512;9.036;2023-08-08T02:36:45;12.80;99.00
55121;DHT22;41019;48.512;9.036;2023-08-08T02:39:11;12.80;98.90
55121;DHT22;41019;48.512;9.036;2023-08-08T02:41:36;12.80;98.90
55121;DHT22;41019;48.512;9.036;2023-08-08T02:44:02;12.80;98.90
55121;DHT22;41019;48.512;9.036;2023-08-08T02:46:29;12.80;98.90
55121;DHT22;41019;48.512;9.036;2023-08-08T02:48:55;12.80;99.10
55121;DHT22;41019;48.512;9.036;2023-08-08T02:51:21;12.90;99.10
55121;DHT22;41019;48.512;9.036;2023-08-08T02:53:46;12.90;99.20
55121;DHT22;41019;48.512;9.036;2023-08-08T02:56:12;12.90;99.00
55121;DHT22;41019;48.512;9.036;2023-08-08T02:58:41;12.80;98.90
55121;DHT22;41019;48.512;9.036;2023-08-08T03:01:07;12.80;98.80
55121;DHT22;41019;48.512;9.036;2023-08-08T03:03:33;12.80;98.70
55121;DHT22;41019;48.512;9.036;2023-08-08T03:06:01;12.80;98.90
55121;DHT22;41019;48.512;9.036;2023-08-08T03:08:27;12.80;98.90
55121;DHT22;41019;48.512;9.036;2023-08-08T03:10:54;12.80;98.80
55121;DHT22;41019;48.512;9.036;2023-08-08T03:13:20;12.80;98.70
55121;DHT22;41019;48.512;9.036;2023-08-08T03:15:48;12.80;98.80
55121;DHT22;41019;48.512;9.036;2023-08-08T03:18:15;12.80;98.80
55121;DHT22;41019;48.512;9.036;2023-08-08T03:20:41;12.70;98.80
55121;DHT22;41019;48.512;9.036;2023-08-08T03:23:08;12.70;98.90
55121;DHT22;41019;48.512;9.036;2023-08-08T03:25:35;12.70;98.80
55121;DHT22;41019;48.512;9.036;2023-08-08T03:28:02;12.70;98.90
55121;DHT22;41019;48.512;9.036;2023-08-08T03:30:28;12.70;99.00
55121;DHT22;41019;48.512;9.036;2023-08-08T03:32:54;12.70;99.20
55121;DHT22;41019;48.512;9.036;2023-08-08T03:35:20;12.70;99.10
55121;DHT22;41019;48.512;9.036;2023-08-08T03:37:47;12.70;99.00
55121;DHT22;41019;48.512;9.036;2023-08-08T03:40:12;12.80;99.00
55121;DHT22;41019;48.512;9.036;2023-08-08T03:42:41;12.80;98.90
55121;DHT22;41019;48.512;9.036;2023-08-08T03:45:08;12.80;99.00
55121;DHT22;41019;48.512;9.036;2023-08-08T03:47:34;12.80;99.00
55121;DHT22;41019;48.512;9.036;2023-08-08T03:50:01;12.80;98.90
55121;DHT22;41019;48.512;9.036;2023-08-08T03:52:26;12.80;98.90
55121;DHT22;41019;48.512;9.036;2023-08-08T03:54:53;12.80;98.90
55121;DHT22;41019;48.512;9.036;2023-08-08T03:57:19;12.80;99.00
55121;DHT22;41019;48.512;9.036;2023-08-08T03:59:45;12.80;99.00
55121;DHT22;41019;48.512;9.036;2023-08-08T04:02:11;12.70;98.90
55121;DHT22;41019;48.512;9.036;2023-08-08T04:04:37;12.80;98.90
55121;DHT22;41019;48.512;9.036;2023-08-08T04:07:04;12.80;99.00
55121;DHT22;41019;48.512;9.036;2023-08-08T04:09:30;12.70;99.10
55121;DHT22;41019;48.512;9.036;2023-08-08T04:11:56;12.80;99.00
55121;DHT22;41019;48.512;9.036;2023-08-08T04:14:22;12.70;98.90
55121;DHT22;41019;48.512;9.036;2023-08-08T04:16:48;12.70;98.90
55121;DHT22;41019;48.512;9.036;2023-08-08T04:19:14;12.70;98.90
55121;DHT22;41019;48.512;9.036;2023-08-08T04:21:40;12.70;98.70
55121;DHT22;41019;48.512;9.036;2023-08-08T04:24:05;12.70;98.80
55121;DHT22;41019;48.512;9.036;2023-08-08T04:26:33;12.60;98.60
55121;DHT22;41019;48.512;9.036;2023-08-08T04:28:59;12.60;98.70
55121;DHT22;41019;48.512;9.036;2023-08-08T04:31:25;12.60;98.70
55121;DHT22;41019;48.512;9.036;2023-08-08T04:33:52;12.60;98.80
55121;DHT22;41019;48.512;9.036;2023-08-08T04:36:21;12.60;98.70
55121;DHT22;41019;48.512;9.036;2023-08-08T04:38:47;12.50;98.80
55121;DHT22;41019;48.512;9.036;2023-08-08T04:41:13;12.50;98.80
55121;DHT22;41019;48.512;9.036;2023-08-08T04:43:39;12.50;98.70
55121;DHT22;41019;48.512;9.036;2023-08-08T04:46:04;12.60;98.80
55121;DHT22;41019;48.512;9.036;2023-08-08T04:48:30;12.50;98.80
55121;DHT22;41019;48.512;9.036;2023-08-08T04:50:56;12.60;98.80
55121;DHT22;41019;48.512;9.036;2023-08-08T04:53:22;12.60;98.90
55121;DHT22;41019;48.512;9.036;2023-08-08T04:55:47;12.60;98.90
55121;DHT22;41019;48.512;9.036;2023-08-08T04:58:13;12.60;99.00
55121;DHT22;41019;48.512;9.036;2023-08-08T05:00:39;12.60;98.90
55121;DHT22;41019;48.512;9.036;2023-08-08T05:03:05;12.70;99.10
55121;DHT22;41019;48.512;9.036;2023-08-08T05:05:30;12.70;98.90
55121;DHT22;41019;48.512;9.036;2023-08-08T05:07:56;12.70;99.10
55121;DHT22;41019;48.512;9.036;2023-08-08T05:10:22;12.80;99.30
55121;DHT22;41019;48.512;9.036;2023-08-08T05:12:48;12.80;99.10
55121;DHT22;41019;48.512;9.036;2023-08-08T05:15:14;12.80;99.10
55121;DHT22;41019;48.512;9.036;2023-08-08T05:17:39;12.80;99.10
55121;DHT22;41019;48.512;9.036;2023-08-08T05:20:06;12.90;99.20
55121;DHT22;41019;48.512;9.036;2023-08-08T05:22:32;12.90;99.00
55121;DHT22;41019;48.512;9.036;2023-08-08T05:24:58;12.90;99.10
55121;DHT22;41019;48.512;9.036;2023-08-08T05:27:24;12.90;99.10
55121;DHT22;41019;48.512;9.036;2023-08-08T05:29:50;12.90;99.10
55121;DHT22;41019;48.512;9.036;2023-08-08T05:32:16;13.00;99.40
55121;DHT22;41019;48.512;9.036;2023-08-08T05:34:41;13.00;99.50
55121;DHT22;41019;48.512;9.036;2023-08-08T05:37:07;13.00;99.40
55121;DHT22;41019;48.512;9.036;2023-08-08T05:39:33;13.10;99.50
55121;DHT22;41019;48.512;9.036;2023-08-08T05:41:59;13.10;99.40
55121;DHT22;41019;48.512;9.036;2023-08-08T05:44:25;13.20;99.00
55121;DHT22;41019;48.512;9.036;2023-08-08T05:46:51;13.20;98.90
55121;DHT22;41019;48.512;9.036;2023-08-08T05:49:17;13.30;98.80
55121;DHT22;41019;48.512;9.036;2023-08-08T05:51:43;13.30;98.80
55121;DHT22;41019;48.512;9.036;2023-08-08T05:54:08;13.30;98.70
55121;DHT22;41019;48.512;9.036;2023-08-08T05:56:35;13.40;98.40
55121;DHT22;41019;48.512;9.036;2023-08-08T05:59:02;13.40;98.30
55121;DHT22;41019;48.512;9.036;2023-08-08T06:01:29;13.50;98.20
55121;DHT22;41019;48.512;9.036;2023-08-08T06:03:55;13.60;98.20
55121;DHT22;41019;48.512;9.036;2023-08-08T06:06:21;13.70;98.30
55121;DHT22;41019;48.512;9.036;2023-08-08T06:08:47;13.70;98.40
55121;DHT22;41019;48.512;9.036;2023-08-08T06:11:13;13.80;98.50
55121;DHT22;41019;48.512;9.036;2023-08-08T06:13:39;14.00;97.80
55121;DHT22;41019;48.512;9.036;2023-08-08T06:16:05;14.10;97.70
55121;DHT22;41019;48.512;9.036;2023-08-08T06:18:33;14.20;97.80
55121;DHT22;41019;48.512;9.036;2023-08-08T06:20:59;14.30;96.90
55121;DHT22;41019;48.512;9.036;2023-08-08T06:23:25;14.50;96.40
55121;DHT22;41019;48.512;9.036;2023-08-08T06:25:51;14.70;96.00
55121;DHT22;41019;48.512;9.036;2023-08-08T06:28:16;14.90;95.60
55121;DHT22;41019;48.512;9.036;2023-08-08T06:30:42;15.10;94.90
55121;DHT22;41019;48.512;9.036;2023-08-08T06:33:08;15.20;94.70
55121;DHT22;41019;48.512;9.036;2023-08-08T06:35:34;15.50;94.20
55121;DHT22;41019;48.512;9.036;2023-08-08T06:38:00;15.60;93.70
55121;DHT22;41019;48.512;9.036;2023-08-08T06:40:26;15.80;93.10
55121;DHT22;41019;48.512;9.036;2023-08-08T06:42:52;15.90;92.60
55121;DHT22;41019;48.512;9.036;2023-08-08T06:45:18;16.10;92.10
55121;DHT22;41019;48.512;9.036;2023-08-08T06:47:44;16.20;92.00
55121;DHT22;41019;48.512;9.036;2023-08-08T06:50:10;16.30;92.00
55121;DHT22;41019;48.512;9.036;2023-08-08T06:52:36;16.50;91.90
55121;DHT22;41019;48.512;9.036;2023-08-08T06:55:03;16.70;91.10
55121;DHT22;41019;48.512;9.036;2023-08-08T06:57:32;16.80;91.30
55121;DHT22;41019;48.512;9.036;2023-08-08T06:59:58;17.00;91.00
55121;DHT22;41019;48.512;9.036;2023-08-08T07:02:24;17.10;91.00
55121;DHT22;41019;48.512;9.036;2023-08-08T07:04:50;17.30;90.60
55121;DHT22;41019;48.512;9.036;2023-08-08T07:07:17;17.50;90.40
55121;DHT22;41019;48.512;9.036;2023-08-08T07:09:43;17.70;90.80
55121;DHT22;41019;48.512;9.036;2023-08-08T07:12:09;17.90;89.10
55121;DHT22;41019;48.512;9.036;2023-08-08T07:14:35;18.00;88.30
55121;DHT22;41019;48.512;9.036;2023-08-08T07:17:01;18.20;89.40
55121;DHT22;41019;48.512;9.036;2023-08-08T07:19:29;18.30;88.50
55121;DHT22;41019;48.512;9.036;2023-08-08T07:21:54;18.40;87.70
55121;DHT22;41019;48.512;9.036;2023-08-08T07:24:20;18.50;87.40
55121;DHT22;41019;48.512;9.036;2023-08-08T07:26:46;18.60;86.80
55121;DHT22;41019;48.512;9.036;2023-08-08T07:29:12;18.80;87.10
55121;DHT22;41019;48.512;9.036;2023-08-08T07:31:38;18.90;86.70
55121;DHT22;41019;48.512;9.036;2023-08-08T07:34:04;19.10;85.00
55121;DHT22;41019;48.512;9.036;2023-08-08T07:36:30;19.30;85.20
55121;DHT22;41019;48.512;9.036;2023-08-08T07:38:56;19.50;84.60
55121;DHT22;41019;48.512;9.036;2023-08-08T07:41:26;19.70;83.70
55121;DHT22;41019;48.512;9.036;2023-08-08T07:43:52;19.80;82.30
55121;DHT22;41019;48.512;9.036;2023-08-08T07:46:22;20.00;80.40
55121;DHT22;41019;48.512;9.036;2023-08-08T07:48:48;20.10;79.70
55121;DHT22;41019;48.512;9.036;2023-08-08T07:51:14;20.30;77.30
55121;DHT22;41019;48.512;9.036;2023-08-08T07:53:39;20.50;78.60
55121;DHT22;41019;48.512;9.036;2023-08-08T07:56:06;20.60;77.50
55121;DHT22;41019;48.512;9.036;2023-08-08T07:58:32;20.80;77.30
55121;DHT22;41019;48.512;9.036;2023-08-08T08:00:58;21.00;76.10
55121;DHT22;41019;48.512;9.036;2023-08-08T08:03:26;21.00;75.60
55121;DHT22;41019;48.512;9.036;2023-08-08T08:05:53;21.10;75.90
55121;DHT22;41019;48.512;9.036;2023-08-08T08:08:19;21.20;73.90
55121;DHT22;41019;48.512;9.036;2023-08-08T08:10:47;21.40;74.70
55121;DHT22;41019;48.512;9.036;2023-08-08T08:13:14;21.50;74.40
55121;DHT22;41019;48.512;9.036;2023-08-08T08:15:40;21.50;73.00
55121;DHT22;41019;48.512;9.036;2023-08-08T08:18:06;21.50;73.40
55121;DHT22;41019;48.512;9.036;2023-08-08T08:20:31;21.60;72.50
55121;DHT22;41019;48.512;9.036;2023-08-08T08:22:58;21.60;72.70
55121;DHT22;41019;48.512;9.036;2023-08-08T08:25:24;21.60;72.70
55121;DHT22;41019;48.512;9.036;2023-08-08T08:27:50;21.60;72.20
55121;DHT22;41019;48.512;9.036;2023-08-08T08:30:16;21.70;72.70
55121;DHT22;41019;48.512;9.036;2023-08-08T08:32:42;21.70;71.80
55121;DHT22;41019;48.512;9.036;2023-08-08T08:35:09;21.70;72.10
55121;DHT22;41019;48.512;9.036;2023-08-08T08:37:35;21.80;71.60
55121;DHT22;41019;48.512;9.036;2023-08-08T08:40:01;21.80;72.20
55121;DHT22;41019;48.512;9.036;2023-08-08T08:42:32;21.90;71.40
55121;DHT22;41019;48.512;9.036;2023-08-08T08:45:02;21.80;70.50
55121;DHT22;41019;48.512;9.036;2023-08-08T08:47:31;21.70;70.10
55121;DHT22;41019;48.512;9.036;2023-08-08T08:49:57;21.80;71.40
55121;DHT22;41019;48.512;9.036;2023-08-08T08:52:24;21.80;71.00
55121;DHT22;41019;48.512;9.036;2023-08-08T08:54:53;21.90;70.70
55121;DHT22;41019;48.512;9.036;2023-08-08T08:57:23;22.00;69.20
55121;DHT22;41019;48.512;9.036;2023-08-08T08:59:50;22.10;69.20
55121;DHT22;41019;48.512;9.036;2023-08-08T09:02:19;22.20;69.90
55121;DHT22;41019;48.512;9.036;2023-08-08T09:04:46;22.40;68.00
55121;DHT22;41019;48.512;9.036;2023-08-08T09:07:12;22.40;69.00
55121;DHT22;41019;48.512;9.036;2023-08-08T09:09:43;22.40;67.90
55121;DHT22;41019;48.512;9.036;2023-08-08T09:12:08;22.50;67.10
55121;DHT22;41019;48.512;9.036;2023-08-08T09:14:40;22.50;66.70
55121;DHT22;41019;48.512;9.036;2023-08-08T09:17:11;22.50;66.60
55121;DHT22;41019;48.512;9.036;2023-08-08T09:19:38;22.60;66.20
55121;DHT22;41019;48.512;9.036;2023-08-08T09:22:04;22.80;67.30
55121;DHT22;41019;48.512;9.036;2023-08-08T09:24:31;22.90;66.20
55121;DHT22;41019;48.512;9.036;2023-08-08T09:26:57;23.20;65.80
55121;DHT22;41019;48.512;9.036;2023-08-08T09:29:23;23.30;65.60
55121;DHT22;41019;48.512;9.036;2023-08-08T09:31:48;23.40;64.40
55121;DHT22;41019;48.512;9.036;2023-08-08T09:34:15;23.60;66.80
55121;DHT22;41019;48.512;9.036;2023-08-08T09:36:41;23.70;64.00
55121;DHT22;41019;48.512;9.036;2023-08-08T09:39:07;23.80;65.00
55121;DHT22;41019;48.512;9.036;2023-08-08T09:41:33;23.90;62.60
55121;DHT22;41019;48.512;9.036;2023-08-08T09:43:59;24.00;62.90
55121;DHT22;41019;48.512;9.036;2023-08-08T09:46:26;24.00;62.50
55121;DHT22;41019;48.512;9.036;2023-08-08T09:48:52;24.10;63.50
55121;DHT22;41019;48.512;9.036;2023-08-08T09:51:20;24.10;63.10
55121;DHT22;41019;48.512;9.036;2023-08-08T09:53:48;24.00;63.10
55121;DHT22;41019;48.512;9.036;2023-08-08T09:56:14;23.90;62.20
55121;DHT22;41019;48.512;9.036;2023-08-08T09:58:42;23.90;65.40
55121;DHT22;41019;48.512;9.036;2023-08-08T10:01:08;24.00;64.90
55121;DHT22;41019;48.512;9.036;2023-08-08T10:03:36;24.00;63.00
55121;DHT22;41019;48.512;9.036;2023-08-08T10:06:03;24.00;62.70
55121;DHT22;41019;48.512;9.036;2023-08-08T10:08:30;24.10;62.10
55121;DHT22;41019;48.512;9.036;2023-08-08T10:10:57;24.30;62.70
55121;DHT22;41019;48.512;9.036;2023-08-08T10:13:26;24.50;61.20
55121;DHT22;41019;48.512;9.036;2023-08-08T10:15:53;24.50;62.30
55121;DHT22;41019;48.512;9.036;2023-08-08T10:18:24;24.60;60.00
55121;DHT22;41019;48.512;9.036;2023-08-08T10:20:51;24.80;61.10
55121;DHT22;41019;48.512;9.036;2023-08-08T10:23:19;24.80;59.60
55121;DHT22;41019;48.512;9.036;2023-08-08T10:25:55;24.80;61.50
55121;DHT22;41019;48.512;9.036;2023-08-08T10:28:21;24.90;59.40
55121;DHT22;41019;48.512;9.036;2023-08-08T10:30:56;25.10;61.00
55121;DHT22;41019;48.512;9.036;2023-08-08T10:33:27;25.10;59.90
55121;DHT22;41019;48.512;9.036;2023-08-08T10:36:04;25.20;57.80
55121;DHT22;41019;48.512;9.036;2023-08-08T10:38:47;25.10;57.30
55121;DHT22;41019;48.512;9.036;2023-08-08T10:41:20;25.10;57.60
55121;DHT22;41019;48.512;9.036;2023-08-08T10:46:27;25.30;58.20
55121;DHT22;41019;48.512;9.036;2023-08-08T10:49:00;25.50;56.10
55121;DHT22;41019;48.512;9.036;2023-08-08T10:51:39;25.30;57.50
55121;DHT22;41019;48.512;9.036;2023-08-08T10:54:08;25.30;56.20
55121;DHT22;41019;48.512;9.036;2023-08-08T10:56:37;25.30;57.10
55121;DHT22;41019;48.512;9.036;2023-08-08T10:59:20;25.20;56.40
55121;DHT22;41019;48.512;9.036;2023-08-08T11:01:48;25.00;56.60
55121;DHT22;41019;48.512;9.036;2023-08-08T11:04:20;24.80;58.10
55121;DHT22;41019;48.512;9.036;2023-08-08T11:06:47;24.80;56.30
55121;DHT22;41019;48.512;9.036;2023-08-08T11:09:16;24.90;56.30
55121;DHT22;41019;48.512;9.036;2023-08-08T11:11:44;25.00;55.90
55121;DHT22;41019;48.512;9.036;2023-08-08T11:14:21;25.10;54.90
55121;DHT22;41019;48.512;9.036;2023-08-08T11:16:49;25.30;57.10
55121;DHT22;41019;48.512;9.036;2023-08-08T11:19:16;25.70;58.70
55121;DHT22;41019;48.512;9.036;2023-08-08T11:21:44;26.00;56.50
55121;DHT22;41019;48.512;9.036;2023-08-08T11:24:12;26.20;53.20
55121;DHT22;41019;48.512;9.036;2023-08-08T11:26:40;26.40;54.90
55121;DHT22;41019;48.512;9.036;2023-08-08T11:29:07;26.50;54.80
55121;DHT22;41019;48.512;9.036;2023-08-08T11:31:36;26.60;54.00
55121;DHT22;41019;48.512;9.036;2023-08-08T11:34:02;26.70;53.20
55121;DHT22;41019;48.512;9.036;2023-08-08T11:36:31;26.80;52.80
55121;DHT22;41019;48.512;9.036;2023-08-08T11:39:04;26.80;51.60
55121;DHT22;41019;48.512;9.036;2023-08-08T11:41:34;26.80;52.40
55121;DHT22;41019;48.512;9.036;2023-08-08T11:44:02;26.90;52.40
55121;DHT22;41019;48.512;9.036;2023-08-08T11:46:28;26.90;52.70
55121;DHT22;41019;48.512;9.036;2023-08-08T11:49:05;26.90;52.00
55121;DHT22;41019;48.512;9.036;2023-08-08T11:51:35;27.00;52.30
55121;DHT22;41019;48.512;9.036;2023-08-08T11:54:02;27.00;51.50
55121;DHT22;41019;48.512;9.036;2023-08-08T11:56:32;27.10;54.00
55121;DHT22;41019;48.512;9.036;2023-08-08T11:58:59;27.20;52.10
55121;DHT22;41019;48.512;9.036;2023-08-08T12:01:26;27.30;51.90
55121;DHT22;41019;48.512;9.036;2023-08-08T12:03:53;27.50;52.00
55121;DHT22;41019;48.512;9.036;2023-08-08T12:06:20;27.60;52.80
55121;DHT22;41019;48.512;9.036;2023-08-08T12:08:47;27.70;50.60
55121;DHT22;41019;48.512;9.036;2023-08-08T12:11:15;27.90;50.30
55121;DHT22;41019;48.512;9.036;2023-08-08T12:13:43;28.00;50.70
55121;DHT22;41019;48.512;9.036;2023-08-08T12:16:10;28.10;50.40
55121;DHT22;41019;48.512;9.036;2023-08-08T12:18:37;28.20;49.30
55121;DHT22;41019;48.512;9.036;2023-08-08T12:21:05;28.10;50.90
55121;DHT22;41019;48.512;9.036;2023-08-08T12:23:31;28.20;47.20
55121;DHT22;41019;48.512;9.036;2023-08-08T12:25:59;28.30;50.40
55121;DHT22;41019;48.512;9.036;2023-08-08T12:28:25;28.50;49.60
55121;DHT22;41019;48.512;9.036;2023-08-08T12:30:52;28.10;46.30
55121;DHT22;41019;48.512;9.036;2023-08-08T12:33:18;27.70;46.70
55121;DHT22;41019;48.512;9.036;2023-08-08T12:35:44;27.60;47.40
55121;DHT22;41019;48.512;9.036;2023-08-08T12:38:10;27.60;48.90
55121;DHT22;41019;48.512;9.036;2023-08-08T12:40:37;27.70;49.70
55121;DHT22;41019;48.512;9.036;2023-08-08T12:43:04;27.80;49.10
55121;DHT22;41019;48.512;9.036;2023-08-08T12:45:30;27.80;48.40
55121;DHT22;41019;48.512;9.036;2023-08-08T12:47:56;27.80;47.50
55121;DHT22;41019;48.512;9.036;2023-08-08T12:50:22;27.90;48.00
55121;DHT22;41019;48.512;9.036;2023-08-08T12:52:48;27.80;47.00
55121;DHT22;41019;48.512;9.036;2023-08-08T12:55:15;27.90;47.60
55121;DHT22;41019;48.512;9.036;2023-08-08T12:57:43;27.90;47.60
55121;DHT22;41019;48.512;9.036;2023-08-08T13:00:10;28.00;46.10
55121;DHT22;41019;48.512;9.036;2023-08-08T13:02:37;28.00;46.80
55121;DHT22;41019;48.512;9.036;2023-08-08T13:05:05;28.20;48.80
55121;DHT22;41019;48.512;9.036;2023-08-08T13:07:33;28.30;47.80
55121;DHT22;41019;48.512;9.036;2023-08-08T13:09:59;28.50;46.50
55121;DHT22;41019;48.512;9.036;2023-08-08T13:12:25;28.50;46.90
55121;DHT22;41019;48.512;9.036;2023-08-08T13:14:51;28.60;47.80
55121;DHT22;41019;48.512;9.036;2023-08-08T13:17:17;28.50;46.30
55121;DHT22;41019;48.512;9.036;2023-08-08T13:19:44;28.40;46.30
55121;DHT22;41019;48.512;9.036;2023-08-08T13:22:10;28.10;48.50
55121;DHT22;41019;48.512;9.036;2023-08-08T13:24:36;28.10;46.90
55121;DHT22;41019;48.512;9.036;2023-08-08T13:27:02;28.10;47.30
55121;DHT22;41019;48.512;9.036;2023-08-08T13:29:28;27.80;46.40
55121;DHT22;41019;48.512;9.036;2023-08-08T13:31:54;27.70;47.50
55121;DHT22;41019;48.512;9.036;2023-08-08T13:34:20;27.70;48.80
55121;DHT22;41019;48.512;9.036;2023-08-08T13:36:46;27.70;48.20
55121;DHT22;41019;48.512;9.036;2023-08-08T13:39:12;27.70;47.00
55121;DHT22;41019;48.512;9.036;2023-08-08T13:41:39;27.60;47.80
55121;DHT22;41019;48.512;9.036;2023-08-08T13:44:05;27.60;46.90
55121;DHT22;41019;48.512;9.036;2023-08-08T13:46:31;27.60;48.70
55121;DHT22;41019;48.512;9.036;2023-08-08T13:48:57;27.50;48.50
55121;DHT22;41019;48.512;9.036;2023-08-08T13:51:23;27.20;48.50
55121;DHT22;41019;48.512;9.036;2023-08-08T13:53:48;26.90;49.30
55121;DHT22;41019;48.512;9.036;2023-08-08T13:56:14;26.80;49.10
55121;DHT22;41019;48.512;9.036;2023-08-08T13:58:41;26.60;49.40
55121;DHT22;41019;48.512;9.036;2023-08-08T14:01:06;26.40;50.30
55121;DHT22;41019;48.512;9.036;2023-08-08T14:03:32;26.20;50.20
55121;DHT22;41019;48.512;9.036;2023-08-08T14:05:58;26.10;50.10
55121;DHT22;41019;48.512;9.036;2023-08-08T14:08:24;26.00;50.50
55121;DHT22;41019;48.512;9.036;2023-08-08T14:10:50;25.80;50.80
55121;DHT22;41019;48.512;9.036;2023-08-08T14:13:16;25.70;51.00
55121;DHT22;41019;48.512;9.036;2023-08-08T14:15:45;25.40;50.90
55121;DHT22;41019;48.512;9.036;2023-08-08T14:18:11;25.30;51.30
55121;DHT22;41019;48.512;9.036;2023-08-08T14:20:37;25.20;49.80
55121;DHT22;41019;48.512;9.036;2023-08-08T14:23:04;25.00;51.30
55121;DHT22;41019;48.512;9.036;2023-08-08T14:25:30;24.80;51.30
55121;DHT22;41019;48.512;9.036;2023-08-08T14:27:56;24.80;52.60
55121;DHT22;41019;48.512;9.036;2023-08-08T14:30:22;24.70;52.20
55121;DHT22;41019;48.512;9.036;2023-08-08T14:32:51;24.60;53.70
55121;DHT22;41019;48.512;9.036;2023-08-08T14:35:17;24.60;53.50
55121;DHT22;41019;48.512;9.036;2023-08-08T14:37:43;24.70;53.60
55121;DHT22;41019;48.512;9.036;2023-08-08T14:40:10;24.70;52.70
55121;DHT22;41019;48.512;9.036;2023-08-08T14:42:36;24.70;53.00
55121;DHT22;41019;48.512;9.036;2023-08-08T14:45:02;24.60;52.90
55121;DHT22;41019;48.512;9.036;2023-08-08T14:47:28;24.60;53.30
55121;DHT22;41019;48.512;9.036;2023-08-08T14:49:54;24.60;53.10
55121;DHT22;41019;48.512;9.036;2023-08-08T14:52:20;24.60;52.40
55121;DHT22;41019;48.512;9.036;2023-08-08T14:54:46;24.60;53.90
55121;DHT22;41019;48.512;9.036;2023-08-08T14:57:12;24.50;53.30
55121;DHT22;41019;48.512;9.036;2023-08-08T14:59:38;24.50;53.60
55121;DHT22;41019;48.512;9.036;2023-08-08T15:02:03;24.50;54.00
55121;DHT22;41019;48.512;9.036;2023-08-08T15:04:29;24.50;54.40
55121;DHT22;41019;48.512;9.036;2023-08-08T15:06:55;24.40;53.20
55121;DHT22;41019;48.512;9.036;2023-08-08T15:09:21;24.40;53.70
55121;DHT22;41019;48.512;9.036;2023-08-08T15:11:48;24.40;53.30
55121;DHT22;41019;48.512;9.036;2023-08-08T15:14:13;24.30;53.20
55121;DHT22;41019;48.512;9.036;2023-08-08T15:16:39;24.20;53.30
55121;DHT22;41019;48.512;9.036;2023-08-08T15:19:05;24.00;53.60
55121;DHT22;41019;48.512;9.036;2023-08-08T15:21:31;23.90;55.60
55121;DHT22;41019;48.512;9.036;2023-08-08T15:23:57;23.80;54.80
55121;DHT22;41019;48.512;9.036;2023-08-08T15:26:23;23.80;55.90
55121;DHT22;41019;48.512;9.036;2023-08-08T15:28:49;23.80;55.00
55121;DHT22;41019;48.512;9.036;2023-08-08T15:31:15;23.80;56.00
55121;DHT22;41019;48.512;9.036;2023-08-08T15:33:42;23.70;55.60